Time;durP1;ratioP1;P1;durP2;ratioP2;P2;SDS_P1;SDS_P2;PMS_P1;PMS_P2;Temp;Humidity;BMP_temperature;BMP_pressure;BME280_temperature;BME280_humidity;BME280_pressure;Samples;Min_cycle;Max_cycle;Signal;HPM_P1;HPM_P2
2022/10/25 00:01:34;;;;;;;;;2.00;0.00;;;;;15.71;92.57;101367.00;4947824;28;51479;-70
2022/10/25 00:03:59;;;;;;;;;2.00;1.00;;;;;15.74;93.48;101378.53;4933163;28;49904;-78
2022/10/25 00:06:24;;;;;;;;;3.25;0.50;;;;;15.53;93.17;101359.75;4932983;28;49883;-80
2022/10/25 00:08:50;;;;;;;;;3.00;3.00;;;;;15.69;93.34;101377.59;4933160;28;49685;-71
2022/10/25 00:11:20;;;;;;;;;1.50;0.50;;;;;15.59;93.50;101370.41;4932729;28;49805;-80
2022/10/25 00:13:48;;;;;;;;;1.00;1.00;;;;;15.58;93.69;101365.09;4932252;28;49601;-69
2022/10/25 00:16:15;;;;;;;;;3.50;2.50;;;;;15.59;94.23;101373.03;4932818;28;49956;-75
2022/10/25 00:18:40;;;;;;;;;0.50;0.25;;;;;15.57;94.57;101371.25;4933077;28;50147;-76
2022/10/25 00:21:08;;;;;;;;;1.00;1.00;;;;;15.65;94.17;101388.16;4932336;28;49709;-70
2022/10/25 00:23:34;;;;;;;;;2.00;1.00;;;;;15.35;94.20;101349.00;4932289;28;54173;-70
2022/10/25 00:26:04;;;;;;;;;3.00;1.75;;;;;15.64;94.06;101394.31;4932775;28;49883;-73
2022/10/25 00:28:30;;;;;;;;;3.25;1.00;;;;;15.64;94.27;101396.97;4942059;28;50043;-69
2022/10/25 00:31:06;;;;;;;;;0.75;0.75;;;;;15.45;94.27;101357.03;4950715;28;50067;-72
2022/10/25 00:33:33;;;;;;;;;2.50;0.75;;;;;15.06;94.80;101303.72;4951139;28;49636;-70
2022/10/25 00:36:16;;;;;;;;;1.00;0.75;;;;;15.37;95.13;101361.38;4950990;28;49824;-72
2022/10/25 00:38:42;;;;;;;;;0.00;0.00;;;;;15.44;95.02;101381.72;4951031;28;49763;-77
2022/10/25 00:41:09;;;;;;;;;2.50;1.75;;;;;15.45;95.14;101379.97;4950946;28;50554;-69
2022/10/25 00:43:40;;;;;;;;;3.00;2.00;;;;;15.51;95.31;101392.34;4951027;28;49918;-74
2022/10/25 00:46:17;;;;;;;;;1.25;1.25;;;;;15.46;94.84;101381.75;4950967;28;49904;-69
2022/10/25 00:48:48;;;;;;;;;4.25;1.00;;;;;15.28;94.96;101349.78;4938007;28;49997;-75
2022/10/25 00:51:13;;;;;;;;;1.75;0.50;;;;;15.43;95.30;101377.28;4931617;28;54853;-72
2022/10/25 00:53:39;;;;;;;;;4.75;4.00;;;;;15.45;95.16;101385.25;4914978;28;49705;-74
2022/10/25 00:56:23;;;;;;;;;1.50;0.75;;;;;15.45;95.74;101391.44;4932459;28;49692;-77
2022/10/25 00:58:55;;;;;;;;;3.00;0.25;;;;;15.19;96.20;101347.94;4932628;28;49625;-74
2022/10/25 01:01:21;;;;;;;;;4.25;2.25;;;;;15.43;96.01;101390.50;4931953;28;49774;-70
2022/10/25 01:03:51;;;;;;;;;0.25;0.00;;;;;15.42;96.40;101388.75;4932052;28;50201;-73
2022/10/25 01:06:22;;;;;;;;;1.75;1.00;;;;;15.33;96.57;101387.75;4931909;28;49914;-76
2022/10/25 01:08:50;;;;;;;;;2.50;0.75;;;;;15.29;96.92;101375.38;4947601;28;49984;-80
2022/10/25 01:11:15;;;;;;;;;5.00;2.00;;;;;15.37;96.79;101406.34;4950206;28;51007;-70
2022/10/25 01:13:41;;;;;;;;;1.75;1.25;;;;;15.31;97.00;101381.56;4950423;28;49799;-69
2022/10/25 01:16:26;;;;;;;;;3.75;1.00;;;;;15.35;97.41;101389.56;4950658;28;50270;-70
2022/10/25 01:19:29;;;;;;;;;1.75;1.75;;;;;15.28;97.76;101386.81;4950702;28;49779;-73
2022/10/25 01:22:10;;;;;;;;;1.00;1.00;;;;;15.33;97.78;101400.97;4950124;28;49812;-74
2022/10/25 01:24:52;;;;;;;;;2.00;2.00;;;;;15.32;98.07;101404.50;4951500;28;50117;-75
2022/10/25 01:27:33;;;;;;;;;2.75;1.25;;;;;15.32;98.17;101405.38;4936344;28;49784;-76
2022/10/25 01:30:40;;;;;;;;;2.00;2.00;;;;;15.28;98.60;101403.59;4936213;28;50029;-69
2022/10/25 01:33:19;;;;;;;;;2.50;1.50;;;;;15.27;98.48;101396.53;4947717;28;52483;-69
2022/10/25 01:35:47;;;;;;;;;1.00;1.00;;;;;15.27;98.25;101393.88;4935972;28;49753;-69
2022/10/25 01:38:34;;;;;;;;;2.00;1.00;;;;;15.24;98.67;101385.88;4954093;28;49600;-76
2022/10/25 01:41:21;;;;;;;;;2.00;2.00;;;;;15.27;98.37;101393.00;4953857;28;49987;-73
2022/10/25 01:43:49;;;;;;;;;4.00;4.00;;;;;15.27;98.30;101390.34;4953630;28;49795;-71
2022/10/25 01:46:35;;;;;;;;;2.50;2.00;;;;;15.14;98.59;101368.13;4954099;28;49952;-80
2022/10/25 01:49:05;;;;;;;;;2.25;0.75;;;;;15.05;98.59;101370.66;4954140;28;49956;-78
2022/10/25 01:51:35;;;;;;;;;2.50;2.00;;;;;15.04;98.51;101356.56;4953459;28;49732;-76
2022/10/25 01:54:00;;;;;;;;;2.50;2.50;;;;;15.19;98.98;101392.91;4953460;28;50034;-76
2022/10/25 01:56:30;;;;;;;;;2.00;1.00;;;;;15.18;98.40;101396.41;4944788;28;49802;-80
2022/10/25 01:59:10;;;;;;;;;1.00;1.00;;;;;15.16;98.28;101392.88;4935076;28;49936;-76
2022/10/25 02:01:50;;;;;;;;;3.50;0.50;;;;;15.14;98.00;101398.09;4934761;28;49958;-80
2022/10/25 02:04:35;;;;;;;;;2.00;2.00;;;;;15.14;97.79;101400.75;4934790;28;49842;-73
2022/10/25 02:07:12;;;;;;;;;3.00;2.25;;;;;14.98;97.69;101367.06;4948861;28;49852;-68
2022/10/25 02:09:55;;;;;;;;;2.00;1.00;;;;;15.12;97.49;101399.84;4953091;28;49730;-70
2022/10/25 02:12:29;;;;;;;;;2.00;1.00;;;;;15.10;97.36;101398.94;4953353;28;49627;-74
2022/10/25 02:15:07;;;;;;;;;1.00;1.00;;;;;15.08;97.58;101405.09;4953016;28;50942;-70
2022/10/25 02:17:39;;;;;;;;;2.00;1.25;;;;;14.91;97.29;101375.78;4952939;28;49834;-74
2022/10/25 02:20:07;;;;;;;;;1.00;1.00;;;;;14.65;96.89;101337.56;4952889;28;49766;-73
2022/10/25 02:22:33;;;;;;;;;1.00;1.00;;;;;14.70;97.03;101359.66;4952521;28;49873;-70
2022/10/25 02:25:00;;;;;;;;;2.00;1.50;;;;;14.94;97.29;101396.09;4952561;28;49813;-69
2022/10/25 02:27:27;;;;;;;;;1.00;1.00;;;;;14.76;96.98;101379.09;4952754;28;49583;-69
2022/10/25 02:29:54;;;;;;;;;1.00;1.00;;;;;14.88;96.99;101397.81;4952845;28;49727;-69
2022/10/25 02:32:20;;;;;;;;;1.50;1.00;;;;;14.95;96.84;101413.72;4952981;28;49832;-70
2022/10/25 02:34:49;;;;;;;;;0.00;0.00;;;;;14.94;97.06;101409.31;4952551;28;50473;-70
2022/10/25 02:37:15;;;;;;;;;2.50;1.00;;;;;14.85;97.12;101399.50;4951875;28;49856;-68
2022/10/25 02:39:40;;;;;;;;;1.00;1.00;;;;;14.91;96.97;101412.81;4952925;28;49771;-68
2022/10/25 02:42:05;;;;;;;;;3.50;3.50;;;;;14.83;97.73;101396.84;4952957;28;49901;-69
2022/10/25 02:44:31;;;;;;;;;2.00;1.00;;;;;14.93;97.80;101407.53;4952502;28;50751;-69
2022/10/25 02:46:56;;;;;;;;;1.00;1.00;;;;;14.68;98.17;101362.28;4952561;28;49639;-77
2022/10/25 02:49:22;;;;;;;;;1.50;1.50;;;;;14.86;97.80;101393.34;4952639;28;50044;-76
2022/10/25 02:51:47;;;;;;;;;0.00;0.00;;;;;14.94;98.13;101398.72;4952453;28;49775;-71
2022/10/25 02:54:12;;;;;;;;;2.00;0.75;;;;;14.62;98.71;101342.81;4952038;28;64496;-79
2022/10/25 02:56:38;;;;;;;;;1.75;1.75;;;;;15.06;98.68;101406.84;4952468;28;49748;-76
2022/10/25 02:59:03;;;;;;;;;4.00;3.00;;;;;15.11;98.55;101413.94;4952474;28;49739;-78
2022/10/25 03:01:28;;;;;;;;;3.00;1.00;;;;;15.16;98.53;101403.44;4952648;28;50072;-74
2022/10/25 03:03:54;;;;;;;;;1.00;1.00;;;;;15.18;98.29;101402.59;4952098;28;54163;-69
2022/10/25 03:06:19;;;;;;;;;2.25;2.25;;;;;15.23;97.86;101397.34;4952089;28;49692;-79
2022/10/25 03:08:45;;;;;;;;;0.00;0.00;;;;;15.00;97.63;101357.41;4952360;28;49977;-80
2022/10/25 03:11:11;;;;;;;;;1.25;1.25;;;;;15.22;97.38;101386.75;4952453;28;50112;-74
2022/10/25 03:13:37;;;;;;;;;1.75;1.75;;;;;15.36;96.91;101404.56;4951705;28;50632;-69
2022/10/25 03:16:03;;;;;;;;;1.00;0.00;;;;;15.29;96.76;101383.31;4934528;28;50046;-69
2022/10/25 03:18:28;;;;;;;;;1.50;1.25;;;;;15.42;96.34;101401.09;4934674;28;49818;-69
2022/10/25 03:20:58;;;;;;;;;0.25;0.25;;;;;15.28;95.84;101370.94;4952010;28;49951;-69
2022/10/25 03:23:24;;;;;;;;;2.50;1.00;;;;;15.21;95.70;101346.19;4951821;28;49759;-70
2022/10/25 03:25:55;;;;;;;;;0.75;0.75;;;;;15.33;95.05;101374.53;4951674;28;49767;-69
2022/10/25 03:28:21;;;;;;;;;0.25;0.00;;;;;15.54;94.81;101403.88;4934899;28;49732;-69
2022/10/25 03:30:46;;;;;;;;;0.75;0.75;;;;;15.50;94.94;101396.75;4951832;28;49625;-74
2022/10/25 03:33:12;;;;;;;;;1.25;0.75;;;;;15.50;94.64;101388.81;4951359;28;50348;-69
2022/10/25 03:35:37;;;;;;;;;1.50;0.00;;;;;15.40;94.27;101379.00;4938736;28;57782;-69
2022/10/25 03:38:03;;;;;;;;;1.00;1.00;;;;;15.60;94.33;101411.91;4933558;28;50116;-72
2022/10/25 03:40:28;;;;;;;;;1.00;1.00;;;;;15.65;94.10;101423.44;4934755;28;49820;-68
2022/10/25 03:42:54;;;;;;;;;3.00;2.00;;;;;15.49;93.81;101386.16;4933559;28;50467;-69
2022/10/25 03:45:19;;;;;;;;;1.00;1.00;;;;;15.60;93.78;101416.28;4933289;28;49755;-69
2022/10/25 03:47:45;;;;;;;;;1.50;1.50;;;;;15.55;93.86;101400.38;4931821;28;55581;-77
2022/10/25 03:50:10;;;;;;;;;1.25;1.25;;;;;15.74;93.97;101423.53;4916015;28;49954;-69
2022/10/25 03:52:36;;;;;;;;;1.25;0.25;;;;;15.76;93.59;101428.84;4932432;28;50514;-69
2022/10/25 03:55:02;;;;;;;;;2.00;2.00;;;;;15.79;93.55;101430.63;4933133;28;49790;-70
2022/10/25 03:57:27;;;;;;;;;2.00;2.00;;;;;15.79;93.04;101431.50;4946159;28;49907;-69
2022/10/25 03:59:53;;;;;;;;;3.75;2.00;;;;;15.69;93.30;101419.06;4932681;28;56458;-69
2022/10/25 04:02:18;;;;;;;;;3.00;2.75;;;;;15.81;93.22;101435.06;4933019;28;50683;-69
2022/10/25 04:04:43;;;;;;;;;0.25;0.00;;;;;15.81;92.72;101432.41;4934978;28;66436;-69
2022/10/25 04:07:09;;;;;;;;;1.25;1.25;;;;;15.83;93.00;101432.44;4951171;28;50488;-70
2022/10/25 04:09:34;;;;;;;;;5.50;0.75;;;;;15.45;92.50;101362.34;4949613;28;49768;-70
2022/10/25 04:12:00;;;;;;;;;3.00;2.00;;;;;15.61;92.25;101384.56;4915548;28;51254;-70
2022/10/25 04:14:25;;;;;;;;;1.25;1.25;;;;;15.57;91.94;101384.50;4932925;28;49972;-74
2022/10/25 04:16:51;;;;;;;;;3.50;2.00;;;;;15.72;92.06;101401.44;4932933;28;49866;-70
2022/10/25 04:19:16;;;;;;;;;0.00;0.00;;;;;15.87;91.83;101427.19;4933133;28;49825;-74
2022/10/25 04:21:41;;;;;;;;;2.00;1.00;;;;;15.64;91.54;101389.91;4932607;28;50596;-79
2022/10/25 04:24:07;;;;;;;;;1.00;1.00;;;;;15.76;91.57;101415.59;4915114;28;49657;-70
2022/10/25 04:26:35;;;;;;;;;2.25;2.00;;;;;15.80;91.71;101416.50;4932593;28;49676;-72
2022/10/25 04:29:01;;;;;;;;;1.00;1.00;;;;;15.67;91.18;101397.88;4932609;28;49902;-73
2022/10/25 04:31:26;;;;;;;;;1.25;0.25;;;;;15.78;91.24;101416.50;4950609;28;49683;-74
2022/10/25 04:33:53;;;;;;;;;2.00;1.75;;;;;15.73;91.22;101423.53;4951175;28;49916;-74
2022/10/25 04:36:19;;;;;;;;;1.50;1.50;;;;;15.97;91.24;101422.84;4933007;28;50060;-70
2022/10/25 04:38:51;;;;;;;;;0.00;0.00;;;;;15.98;90.78;101437.88;4951126;28;50035;-70
2022/10/25 04:41:18;;;;;;;;;3.50;1.00;;;;;15.85;90.41;101412.16;4950595;28;49950;-70
2022/10/25 04:43:43;;;;;;;;;4.25;2.25;;;;;14.86;90.55;101229.44;4950693;28;50139;-76
2022/10/25 04:46:08;;;;;;;;;1.25;1.25;;;;;15.71;90.23;101386.44;4950741;28;49939;-74
2022/10/25 04:48:38;;;;;;;;;1.00;1.00;;;;;15.67;90.02;101376.69;4951077;28;49677;-70
2022/10/25 04:51:03;;;;;;;;;2.50;2.00;;;;;15.70;90.05;101389.06;4949196;28;50571;-74
2022/10/25 04:53:29;;;;;;;;;1.75;1.75;;;;;15.80;90.19;101404.16;4950730;28;50026;-70
2022/10/25 04:55:59;;;;;;;;;2.50;1.50;;;;;15.82;90.17;101414.75;4950999;28;50079;-75
2022/10/25 04:58:25;;;;;;;;;1.25;1.25;;;;;15.62;90.60;101406.63;4951019;28;49593;-77
2022/10/25 05:00:51;;;;;;;;;2.00;2.00;;;;;15.72;90.98;101419.97;4953669;28;50740;-70
2022/10/25 05:03:17;;;;;;;;;0.50;0.50;;;;;15.45;91.17;101383.50;4949834;28;49770;-71
2022/10/25 05:05:42;;;;;;;;;2.00;1.00;;;;;15.81;91.73;101442.09;4935454;28;49815;-72
2022/10/25 05:08:07;;;;;;;;;1.50;1.50;;;;;15.27;91.82;101358.59;4949725;28;49742;-78
2022/10/25 05:10:33;;;;;;;;;3.50;2.25;;;;;15.55;92.08;101410.06;4939704;28;51113;-75
2022/10/25 05:12:58;;;;;;;;;1.25;1.25;;;;;15.39;92.13;101380.78;4945007;28;49573;-79
2022/10/25 05:15:24;;;;;;;;;2.00;1.00;;;;;15.34;92.82;101381.59;4941402;28;50047;-71
2022/10/25 05:17:49;;;;;;;;;4.25;2.75;;;;;15.71;93.42;101446.41;4935797;28;49965;-71
2022/10/25 05:20:14;;;;;;;;;3.50;3.50;;;;;15.49;93.67;101407.34;4934637;28;69515;-70
2022/10/25 05:22:39;;;;;;;;;3.00;2.00;;;;;15.30;94.07;101379.78;4946472;28;49956;-70
2022/10/25 05:25:05;;;;;;;;;3.75;2.00;;;;;15.43;94.60;101413.44;4953841;28;49795;-80
2022/10/25 05:27:31;;;;;;;;;2.00;2.00;;;;;15.58;95.14;101445.38;4954080;28;50136;-70
2022/10/25 05:29:56;;;;;;;;;3.75;2.75;;;;;15.35;95.63;101408.09;4953918;28;49852;-70
2022/10/25 05:32:21;;;;;;;;;4.50;3.25;;;;;15.39;95.63;101424.88;4935984;28;50329;-73
2022/10/25 05:34:47;;;;;;;;;4.00;1.75;;;;;15.36;96.01;101425.72;4941048;28;54923;-80
2022/10/25 05:37:12;;;;;;;;;1.50;1.50;;;;;15.17;95.97;101399.94;4935212;28;49911;-73
2022/10/25 05:39:37;;;;;;;;;3.00;2.00;;;;;15.51;95.98;101463.81;4934764;28;49725;-72
2022/10/25 05:42:05;;;;;;;;;1.50;1.50;;;;;15.16;96.45;101403.44;4917200;28;62413;-74
2022/10/25 05:44:30;;;;;;;;;5.00;2.75;;;;;15.41;96.32;101454.88;4917812;28;49896;-70
2022/10/25 05:46:56;;;;;;;;;0.25;0.25;;;;;15.32;96.83;101445.06;4917812;28;49602;-75
2022/10/25 05:49:21;;;;;;;;;2.00;2.00;;;;;15.43;96.91;101454.00;4939102;28;49738;-73
2022/10/25 05:51:46;;;;;;;;;4.50;4.00;;;;;15.35;97.06;101447.75;4942167;28;49889;-70
2022/10/25 05:54:13;;;;;;;;;5.00;4.00;;;;;15.32;97.37;101442.41;4937460;28;49826;-72
2022/10/25 05:56:40;;;;;;;;;6.00;4.25;;;;;15.36;98.16;101453.94;4949539;28;50164;-73
2022/10/25 05:59:13;;;;;;;;;2.75;2.75;;;;;15.03;98.89;101410.31;4934601;28;50713;-74
2022/10/25 06:01:40;;;;;;;;;3.50;3.25;;;;;15.37;98.88;101464.53;4936615;28;49861;-72
2022/10/25 06:04:06;;;;;;;;;3.00;3.00;;;;;15.24;99.14;101449.38;4934294;28;50038;-76
2022/10/25 06:06:32;;;;;;;;;4.50;3.00;;;;;15.41;99.02;101466.34;4936454;28;49797;-79
2022/10/25 06:08:59;;;;;;;;;2.00;2.00;;;;;15.32;98.97;101454.75;4938622;28;50893;-67
2022/10/25 06:11:25;;;;;;;;;4.75;2.50;;;;;15.35;99.26;101458.34;4950525;28;49987;-68
2022/10/25 06:13:51;;;;;;;;;4.00;4.00;;;;;15.51;98.76;101463.81;4948998;28;49905;-74
2022/10/25 06:16:18;;;;;;;;;2.75;2.00;;;;;15.52;98.97;101476.16;4944148;28;49897;-79
2022/10/25 06:18:44;;;;;;;;;2.00;2.00;;;;;15.56;99.00;101472.69;4941260;28;49857;-76
2022/10/25 06:21:12;;;;;;;;;3.00;3.00;;;;;15.55;98.82;101481.50;4937785;28;50050;-70
2022/10/25 06:23:39;;;;;;;;;3.00;3.00;;;;;15.49;99.00;101460.25;4938106;28;49810;-73
2022/10/25 06:26:07;;;;;;;;;5.00;4.00;;;;;15.25;98.63;101414.13;4934502;28;49934;-72
2022/10/25 06:28:33;;;;;;;;;4.75;4.75;;;;;15.30;98.45;101416.81;4934322;28;50742;-76
2022/10/25 06:31:00;;;;;;;;;6.50;4.25;;;;;15.59;98.21;101478.03;4938049;28;50150;-79
2022/10/25 06:33:26;;;;;;;;;2.25;2.00;;;;;15.34;97.68;101422.16;4951447;28;49349;-72
2022/10/25 06:36:00;;;;;;;;;3.75;2.00;;;;;15.59;98.27;101462.13;4943140;28;49735;-70
2022/10/25 06:38:26;;;;;;;;;4.00;4.00;;;;;15.64;97.99;101476.38;4934770;28;50729;-74
2022/10/25 06:40:56;;;;;;;;;3.75;3.00;;;;;15.44;97.81;101439.03;4946327;28;49427;-72
2022/10/25 06:43:22;;;;;;;;;4.75;3.50;;;;;15.40;97.83;101430.16;4942899;28;49814;-70
2022/10/25 06:45:47;;;;;;;;;4.25;3.00;;;;;15.60;97.58;101462.19;4942429;28;49629;-72
2022/10/25 06:48:12;;;;;;;;;6.75;5.50;;;;;15.67;97.18;101466.69;4922767;28;51531;-71
2022/10/25 06:50:38;;;;;;;;;1.75;1.75;;;;;15.84;95.24;101485.41;4940647;28;59522;-75
2022/10/25 06:53:03;;;;;;;;;5.00;3.00;;;;;15.66;95.01;101461.38;4934111;28;63912;-71
2022/10/25 06:55:28;;;;;;;;;3.50;2.50;;;;;15.87;94.19;101497.78;4944386;28;49741;-70
2022/10/25 06:57:57;;;;;;;;;4.25;2.50;;;;;15.54;94.42;101430.34;4934521;28;60518;-73
2022/10/25 07:00:23;;;;;;;;;2.50;1.50;;;;;15.85;93.83;101489.84;4942612;28;49752;-73
2022/10/25 07:02:56;;;;;;;;;3.00;2.00;;;;;15.91;94.03;101495.16;4939552;28;49857;-70
2022/10/25 07:05:22;;;;;;;;;4.50;2.25;;;;;15.93;94.09;101479.31;4947616;28;49855;-70
2022/10/25 07:07:47;;;;;;;;;2.50;2.00;;;;;15.99;93.94;101490.84;4938024;28;50385;-75
2022/10/25 07:10:13;;;;;;;;;2.00;2.00;;;;;15.88;94.29;101476.63;4915577;28;49778;-70
2022/10/25 07:12:38;;;;;;;;;1.75;1.50;;;;;16.09;94.05;101490.94;4932241;28;49790;-69
2022/10/25 07:15:04;;;;;;;;;2.00;2.00;;;;;15.98;93.68;101467.00;4932683;28;49716;-70
2022/10/25 07:17:29;;;;;;;;;1.50;1.50;;;;;16.14;93.46;101490.13;4933514;28;49700;-70
2022/10/25 07:19:56;;;;;;;;;2.75;2.75;;;;;15.98;93.19;101467.88;4934048;28;62135;-72
2022/10/25 07:22:22;;;;;;;;;2.00;2.00;;;;;16.10;93.15;101479.47;4916270;28;50002;-81
2022/10/25 07:24:47;;;;;;;;;5.75;4.25;;;;;16.30;93.30;101509.69;4933269;28;49914;-73
2022/10/25 07:27:13;;;;;;;;;3.25;3.25;;;;;16.14;93.04;101473.34;4932963;28;60600;-69
2022/10/25 07:29:38;;;;;;;;;7.75;4.75;;;;;16.11;92.98;101465.34;4933275;28;49819;-69
2022/10/25 07:32:03;;;;;;;;;4.00;4.00;;;;;16.40;92.38;101514.19;4933374;28;49762;-74
2022/10/25 07:34:29;;;;;;;;;3.25;3.25;;;;;16.14;92.48;101474.22;4933790;28;49786;-71
2022/10/25 07:36:54;;;;;;;;;5.50;4.50;;;;;16.38;92.69;101507.09;4933382;28;50438;-80
2022/10/25 07:39:19;;;;;;;;;3.50;2.75;;;;;16.40;92.17;101500.94;4932115;28;50099;-72
2022/10/25 07:41:45;;;;;;;;;6.75;3.00;;;;;16.35;91.82;101492.06;4916026;28;52123;-75
2022/10/25 07:44:11;;;;;;;;;1.75;1.75;;;;;16.23;91.79;101465.47;4933751;28;49914;-80
2022/10/25 07:46:36;;;;;;;;;2.00;2.00;;;;;16.58;91.45;101516.13;4916594;28;51386;-76
2022/10/25 07:49:02;;;;;;;;;2.00;2.00;;;;;16.67;91.13;101520.59;4934255;28;49958;-74
2022/10/25 07:51:27;;;;;;;;;3.00;1.00;;;;;16.68;90.81;101515.34;4934838;28;50115;-71
2022/10/25 07:53:52;;;;;;;;;3.00;3.00;;;;;16.57;90.26;101483.41;4934369;28;50225;-81
2022/10/25 07:56:19;;;;;;;;;6.00;4.50;;;;;16.78;90.03;101522.47;4934476;28;50003;-72
2022/10/25 07:58:44;;;;;;;;;4.75;3.25;;;;;16.94;90.04;101528.81;4933754;28;50060;-72
2022/10/25 08:01:10;;;;;;;;;3.00;3.00;;;;;17.00;89.80;101528.84;4933082;28;49967;-70
2022/10/25 08:03:35;;;;;;;;;2.00;2.00;;;;;17.02;89.11;101528.84;4933227;28;49582;-70
2022/10/25 08:06:01;;;;;;;;;4.00;3.00;;;;;17.04;88.18;101525.34;4932873;28;51031;-70
2022/10/25 08:08:28;;;;;;;;;2.00;2.00;;;;;16.71;88.00;101454.41;4951187;28;49808;-79
2022/10/25 08:10:53;;;;;;;;;9.75;4.25;;;;;16.92;87.74;101482.81;4951896;28;49885;-80
2022/10/25 08:13:19;;;;;;;;;2.75;1.75;;;;;17.13;87.63;101492.66;4951728;28;49764;-79
2022/10/25 08:15:52;;;;;;;;;2.75;2.75;;;;;17.32;86.71;101517.53;4951719;28;50560;-77
2022/10/25 08:18:17;;;;;;;;;2.75;2.75;;;;;17.02;86.49;101455.47;4951422;28;49980;-76
2022/10/25 08:20:42;;;;;;;;;4.00;4.00;;;;;17.42;85.80;101506.09;4951070;28;49954;-78
2022/10/25 08:23:08;;;;;;;;;3.50;3.50;;;;;17.33;85.85;101484.81;4952359;28;49668;-72
2022/10/25 08:25:33;;;;;;;;;1.50;0.75;;;;;17.45;84.84;101504.31;4951186;28;49977;-70
2022/10/25 08:27:58;;;;;;;;;6.50;3.00;;;;;17.46;85.71;101500.78;4951349;28;49830;-75
2022/10/25 08:30:24;;;;;;;;;3.00;3.00;;;;;17.53;84.97;101504.34;4951169;28;49789;-73
2022/10/25 08:32:50;;;;;;;;;5.50;3.75;;;;;17.38;84.69;101468.03;4950379;28;50103;-73
2022/10/25 08:35:15;;;;;;;;;4.00;3.00;;;;;17.50;84.43;101485.78;4957376;28;50639;-71
2022/10/25 08:37:41;;;;;;;;;4.00;4.00;;;;;17.63;84.72;101505.28;4950165;28;50104;-70
2022/10/25 08:40:18;;;;;;;;;4.50;3.00;;;;;17.43;84.38;101466.28;4954665;28;49593;-71
2022/10/25 08:43:06;;;;;;;;;4.50;3.75;;;;;17.52;84.00;101470.72;4946045;28;49806;-72
2022/10/25 08:45:56;;;;;;;;;2.75;2.00;;;;;17.63;82.90;101498.19;4950246;28;51133;-74
2022/10/25 08:48:28;;;;;;;;;2.00;2.00;;;;;17.56;82.36;101485.78;4941540;28;49791;-73
2022/10/25 08:51:01;;;;;;;;;1.00;1.00;;;;;17.54;81.68;101495.50;4943420;28;49868;-75
2022/10/25 08:53:59;;;;;;;;;2.25;1.50;;;;;17.60;82.15;101484.94;4940616;28;49605;-78
2022/10/25 08:56:26;;;;;;;;;1.50;1.00;;;;;17.73;81.26;101491.19;4906846;28;50808;-80
2022/10/25 08:58:58;;;;;;;;;1.75;0.75;;;;;17.75;80.88;101500.03;4929769;28;49791;-78
2022/10/25 09:01:30;;;;;;;;;1.75;1.75;;;;;17.40;80.57;101422.91;4940509;28;50148;-74
2022/10/25 09:04:01;;;;;;;;;3.00;1.25;;;;;17.77;79.83;101492.09;4951489;28;50457;-77
2022/10/25 09:07:04;;;;;;;;;3.75;3.00;;;;;17.76;78.90;101485.91;4955831;28;50624;-76
2022/10/25 09:09:41;;;;;;;;;1.00;1.00;;;;;16.91;79.22;101351.09;4932301;28;50173;-77
2022/10/25 09:12:21;;;;;;;;;3.50;1.25;;;;;17.65;78.68;101471.66;4946627;28;50336;-76
2022/10/25 09:14:57;;;;;;;;;2.25;2.25;;;;;16.79;78.05;101370.50;4914734;28;50022;-77
2022/10/25 09:17:34;;;;;;;;;1.50;1.50;;;;;17.71;78.67;101499.16;4933785;28;51836;-78
2022/10/25 09:20:17;;;;;;;;;0.75;0.75;;;;;16.48;78.80;101292.53;4943851;28;49799;-77
2022/10/25 09:22:55;;;;;;;;;2.00;2.00;;;;;17.63;78.60;101454.84;4947160;28;49843;-78
2022/10/25 09:25:50;;;;;;;;;3.25;1.00;;;;;17.89;77.98;101492.13;4953495;28;50191;-78
2022/10/25 09:28:25;;;;;;;;;2.50;2.00;;;;;16.60;77.50;101267.88;4920459;28;51699;-78
2022/10/25 09:30:56;;;;;;;;;5.00;1.00;;;;;17.71;76.26;101475.25;4949930;28;50135;-77
2022/10/25 09:33:29;;;;;;;;;3.00;2.00;;;;;17.90;75.74;101491.25;4955289;28;49813;-77
2022/10/25 09:35:56;;;;;;;;;0.75;0.50;;;;;17.89;75.81;101485.03;4957205;28;49965;-76
2022/10/25 09:38:43;;;;;;;;;1.25;1.25;;;;;17.78;75.26;101464.66;4944323;28;49760;-77
2022/10/25 09:41:21;;;;;;;;;0.75;0.50;;;;;17.61;75.53;101436.25;4936005;28;49834;-77
2022/10/25 09:44:13;;;;;;;;;1.00;1.00;;;;;17.89;74.96;101476.19;4952591;28;49829;-76
2022/10/25 09:46:41;;;;;;;;;0.00;0.00;;;;;17.73;74.61;101448.69;4935537;28;49786;-77
2022/10/25 09:49:09;;;;;;;;;1.25;0.25;;;;;17.89;75.01;101470.88;4934616;28;49910;-77
2022/10/25 09:51:59;;;;;;;;;1.00;1.00;;;;;17.90;74.90;101467.34;4922503;28;49832;-76
2022/10/25 09:54:41;;;;;;;;;0.00;0.00;;;;;17.72;74.61;101436.31;4960198;28;49806;-77
2022/10/25 09:57:06;;;;;;;;;0.00;0.00;;;;;17.13;74.70;101379.47;4949658;28;50057;-76
2022/10/25 09:59:32;;;;;;;;;1.00;1.00;;;;;16.65;74.24;101271.41;4950994;28;51028;-76
2022/10/25 10:01:58;;;;;;;;;1.00;1.00;;;;;17.89;74.76;101470.88;4957932;28;49768;-76
2022/10/25 10:04:34;;;;;;;;;1.50;1.50;;;;;17.24;74.57;101400.72;4951703;28;49963;-77
2022/10/25 10:07:27;;;;;;;;;1.75;0.50;;;;;17.63;74.27;101428.28;4935162;28;49689;-77
2022/10/25 10:10:01;;;;;;;;;2.00;1.00;;;;;17.93;75.01;101472.63;4930159;28;52658;-77
2022/10/25 10:12:34;;;;;;;;;1.00;1.00;;;;;17.35;74.44;101361.84;4953137;28;49697;-78
2022/10/25 10:15:05;;;;;;;;;0.50;0.50;;;;;17.43;74.50;101367.19;4953097;28;49743;-76
2022/10/25 10:17:31;;;;;;;;;1.25;1.25;;;;;17.93;73.89;101449.63;4955629;28;49873;-74
2022/10/25 10:20:16;;;;;;;;;0.25;0.25;;;;;17.41;74.50;101367.19;4948992;28;51194;-75
2022/10/25 10:22:53;;;;;;;;;0.00;0.00;;;;;17.94;74.25;101442.53;4947725;28;49731;-73
2022/10/25 10:25:24;;;;;;;;;3.50;2.50;;;;;18.12;73.68;101458.50;4942382;28;51221;-74
2022/10/25 10:27:52;;;;;;;;;2.00;2.00;;;;;17.27;73.05;101297.25;4951630;28;50020;-74
2022/10/25 10:30:22;;;;;;;;;6.25;6.25;;;;;17.31;73.05;101298.16;4951149;28;49902;-74
2022/10/25 10:32:53;;;;;;;;;8.75;7.75;;;;;17.14;73.34;101271.59;4936183;28;49920;-74
2022/10/25 10:35:30;;;;;;;;;5.75;5.75;;;;;17.42;73.28;101330.91;4939881;28;50187;-74
2022/10/25 10:38:23;;;;;;;;;6.00;4.00;;;;;18.34;73.01;101451.44;4937087;28;49660;-73
2022/10/25 10:40:50;;;;;;;;;1.50;1.00;;;;;16.92;73.07;101206.13;4959843;28;49806;-75
2022/10/25 10:43:30;;;;;;;;;1.75;0.00;;;;;18.26;71.93;101422.19;4948562;28;49730;-75
2022/10/25 10:46:06;;;;;;;;;5.50;5.25;;;;;17.57;72.64;101328.28;4964686;28;49300;-73
2022/10/25 10:48:35;;;;;;;;;2.00;2.00;;;;;17.07;72.25;101198.19;4967153;28;49747;-71
2022/10/25 10:51:01;;;;;;;;;9.75;7.75;;;;;18.40;71.52;101416.84;4939917;28;50395;-71
2022/10/25 10:53:28;;;;;;;;;10.25;8.50;;;;;18.56;71.77;101428.38;4937354;28;50087;-72
2022/10/25 10:55:56;;;;;;;;;6.50;4.25;;;;;18.65;71.77;101448.78;4932435;28;49784;-73
2022/10/25 10:58:24;;;;;;;;;4.00;3.50;;;;;18.29;71.22;101376.13;4917309;28;50029;-72
2022/10/25 11:00:51;;;;;;;;;11.00;11.00;;;;;18.68;71.09;101428.38;4932205;28;51166;-72
2022/10/25 11:03:40;;;;;;;;;5.75;5.00;;;;;18.70;70.87;101431.03;4932352;28;49858;-72
2022/10/25 11:06:09;;;;;;;;;3.75;3.50;;;;;17.87;71.16;101300.00;4948114;28;49664;-71
2022/10/25 11:08:35;;;;;;;;;7.50;6.25;;;;;18.21;71.06;101335.38;4953278;28;50295;-74
2022/10/25 11:11:14;;;;;;;;;3.50;1.25;;;;;18.78;70.64;101423.94;4950343;28;49904;-72
2022/10/25 11:13:45;;;;;;;;;2.75;1.75;;;;;18.52;70.95;101368.09;4950440;28;49736;-72
2022/10/25 11:16:27;;;;;;;;;0.00;0.00;;;;;18.82;69.48;101415.06;4934121;28;49810;-72
2022/10/25 11:19:05;;;;;;;;;1.00;1.00;;;;;18.84;70.55;101407.97;4950776;28;49675;-72
2022/10/25 11:22:05;;;;;;;;;7.00;6.00;;;;;18.89;70.68;101406.16;4950519;28;49912;-71
2022/10/25 11:24:45;;;;;;;;;5.25;4.50;;;;;17.44;70.39;101153.97;4940231;28;50162;-72
2022/10/25 11:27:28;;;;;;;;;6.25;5.00;;;;;18.93;70.59;101401.72;4932106;28;50114;-73
2022/10/25 11:30:54;;;;;;;;;12.50;12.25;;;;;18.82;70.95;101368.06;4945763;28;50018;-71
2022/10/25 11:33:37;;;;;;;;;1.00;1.00;;;;;18.98;70.25;101390.16;4872854;28;49827;-71
2022/10/25 11:36:11;;;;;;;;;3.50;3.50;;;;;19.02;70.15;101388.41;4890536;28;50001;-74
2022/10/25 11:38:55;;;;;;;;;2.00;2.00;;;;;19.04;70.03;101397.25;4936261;28;50787;-73